Time;durP1;ratioP1;P1;durP2;ratioP2;P2;SDS_P1;SDS_P2;PMS_P1;PMS_P2;Temp;Humidity;BMP_temperature;BMP_pressure;BME280_temperature;BME280_humidity;BME280_pressure;Samples;Min_cycle;Max_cycle;Signal;HPM_P1;HPM_P2
2022/03/29 00:01:59;;;;;;;13.82;7.18;;;8.80;44.50;;;;;;5066544;28;20510;-61
2022/03/29 00:04:25;;;;;;;10.35;5.95;;;8.80;44.80;;;;;;5085496;28;20033;-60
2022/03/29 00:06:52;;;;;;;13.70;6.00;;;8.70;44.80;;;;;;5068533;28;20036;-61
2022/03/29 00:09:18;;;;;;;10.82;6.32;;;8.70;44.80;;;;;;5084303;28;20032;-60
2022/03/29 00:11:44;;;;;;;15.65;6.32;;;8.70;44.80;;;;;;5084205;28;20063;-60
2022/03/29 00:14:12;;;;;;;12.13;6.65;;;8.70;44.70;;;;;;5093505;28;20028;-60
2022/03/29 00:16:38;;;;;;;22.20;6.15;;;8.60;44.70;;;;;;5084266;28;20047;-60
2022/03/29 00:19:05;;;;;;;14.10;6.10;;;8.60;44.70;;;;;;5085218;28;20032;-60
2022/03/29 00:21:30;;;;;;;12.02;6.30;;;8.60;44.90;;;;;;5065552;28;20032;-60
2022/03/29 00:23:56;;;;;;;12.88;6.32;;;8.60;45.00;;;;;;5103736;28;20111;-60
2022/03/29 00:26:22;;;;;;;13.75;6.55;;;8.60;45.10;;;;;;5100351;28;20481;-60
2022/03/29 00:28:47;;;;;;;12.52;6.53;;;8.60;45.10;;;;;;5092093;28;20060;-61
2022/03/29 00:31:16;;;;;;;11.55;6.15;;;8.60;45.10;;;;;;5086538;28;20032;-60
2022/03/29 00:33:42;;;;;;;9.38;6.15;;;8.50;45.20;;;;;;5096851;28;20031;-60
2022/03/29 00:36:07;;;;;;;11.18;6.13;;;8.50;45.20;;;;;;5086214;28;20502;-61
2022/03/29 00:38:33;;;;;;;12.13;6.40;;;8.50;45.10;;;;;;5084237;28;20020;-60
2022/03/29 00:40:59;;;;;;;14.82;6.50;;;8.50;45.10;;;;;;5067210;28;20036;-60
2022/03/29 00:43:25;;;;;;;13.48;7.07;;;8.50;45.30;;;;;;5082966;28;20024;-61
2022/03/29 00:45:51;;;;;;;9.95;6.32;;;8.50;45.50;;;;;;5091886;28;20036;-60
2022/03/29 00:48:17;;;;;;;12.50;6.35;;;8.40;45.70;;;;;;5083686;28;20511;-60
2022/03/29 00:50:44;;;;;;;10.68;5.57;;;8.40;45.80;;;;;;5068895;28;20299;-60
2022/03/29 00:53:10;;;;;;;12.23;6.40;;;8.40;46.00;;;;;;5077819;28;20090;-61
2022/03/29 00:55:37;;;;;;;14.30;6.57;;;8.40;45.90;;;;;;5050433;28;20120;-60
2022/03/29 00:58:04;;;;;;;12.02;6.80;;;8.40;46.10;;;;;;5090158;28;20024;-61
2022/03/29 01:00:31;;;;;;;12.90;6.68;;;8.30;46.10;;;;;;5067036;28;20036;-60
2022/03/29 01:02:58;;;;;;;13.02;6.70;;;8.30;46.20;;;;;;5085517;28;20028;-61
2022/03/29 01:05:26;;;;;;;9.93;5.95;;;8.30;46.30;;;;;;5085763;28;20032;-60
2022/03/29 01:07:56;;;;;;;13.40;6.93;;;8.30;46.30;;;;;;5084656;28;20045;-60
2022/03/29 01:10:24;;;;;;;15.35;6.88;;;8.30;46.40;;;;;;5060326;28;20017;-61
2022/03/29 01:12:50;;;;;;;12.57;6.65;;;8.30;46.60;;;;;;5094628;28;20054;-60
2022/03/29 01:15:17;;;;;;;13.82;7.15;;;8.20;46.70;;;;;;5080523;28;20025;-60
2022/03/29 01:17:43;;;;;;;14.13;6.72;;;8.20;46.70;;;;;;5084483;28;20508;-60
2022/03/29 01:20:21;;;;;;;12.40;7.50;;;8.20;46.60;;;;;;5067332;28;20048;-60
2022/03/29 01:22:48;;;;;;;17.98;8.10;;;8.20;47.30;;;;;;5083275;28;20115;-61
2022/03/29 01:25:16;;;;;;;16.40;7.43;;;8.10;47.20;;;;;;5072811;28;20028;-60
2022/03/29 01:27:44;;;;;;;15.30;8.05;;;8.10;46.70;;;;;;5083093;28;20138;-60
2022/03/29 01:30:11;;;;;;;12.23;7.10;;;8.10;46.80;;;;;;5070598;28;20091;-62
2022/03/29 01:32:46;;;;;;;13.10;6.65;;;8.10;46.80;;;;;;5081606;28;20027;-60
2022/03/29 01:35:12;;;;;;;10.73;6.65;;;8.00;46.80;;;;;;5081219;28;20510;-62
2022/03/29 01:37:39;;;;;;;12.55;7.43;;;8.00;46.50;;;;;;5105331;28;20410;-60
2022/03/29 01:40:13;;;;;;;10.93;6.85;;;8.00;46.60;;;;;;5087310;28;20092;-60
2022/03/29 01:42:43;;;;;;;15.88;7.28;;;8.00;47.30;;;;;;5068387;28;20032;-60
2022/03/29 01:45:10;;;;;;;15.60;7.60;;;8.00;46.90;;;;;;5086523;28;20032;-60
2022/03/29 01:47:35;;;;;;;11.00;6.57;;;8.00;47.10;;;;;;5101365;28;20020;-60
2022/03/29 01:50:01;;;;;;;14.27;6.95;;;8.00;47.00;;;;;;5086492;28;20115;-61
2022/03/29 01:52:27;;;;;;;10.30;6.18;;;7.90;47.00;;;;;;5080690;28;20060;-61
2022/03/29 01:54:53;;;;;;;11.38;7.03;;;7.90;47.00;;;;;;5052883;28;20123;-60
2022/03/29 01:57:24;;;;;;;11.27;6.95;;;7.90;47.10;;;;;;5068549;28;20032;-60
2022/03/29 02:02:34;;;;;;;10.45;5.95;;;7.90;47.10;;;;;;5063073;28;20183;-61
2022/03/29 02:05:00;;;;;;;11.85;6.55;;;7.80;47.00;;;;;;5068250;28;20029;-61
2022/03/29 02:07:26;;;;;;;12.43;6.75;;;7.80;47.20;;;;;;5073293;28;20056;-60
2022/03/29 02:09:51;;;;;;;10.85;6.50;;;7.80;47.40;;;;;;5070198;28;20029;-61
2022/03/29 02:12:17;;;;;;;11.68;6.78;;;7.80;47.50;;;;;;5074888;28;20036;-60
2022/03/29 02:14:42;;;;;;;12.88;7.10;;;7.80;47.50;;;;;;5072715;28;20044;-60
2022/03/29 02:17:08;;;;;;;9.77;6.43;;;7.80;47.60;;;;;;5068669;28;20029;-61
2022/03/29 02:19:34;;;;;;;11.27;6.75;;;7.70;47.60;;;;;;5068550;28;20028;-60
2022/03/29 02:21:59;;;;;;;11.65;6.25;;;7.70;47.70;;;;;;5070876;28;20096;-60
2022/03/29 02:24:25;;;;;;;12.55;6.80;;;7.70;47.80;;;;;;5077535;28;20028;-60
2022/03/29 02:26:51;;;;;;;13.32;6.80;;;7.70;47.90;;;;;;5071169;28;20106;-60
2022/03/29 02:29:16;;;;;;;13.23;6.82;;;7.70;47.80;;;;;;5075556;28;20025;-60
2022/03/29 02:31:42;;;;;;;11.90;7.22;;;7.60;47.80;;;;;;5062161;28;20032;-61
2022/03/29 02:34:07;;;;;;;16.33;7.43;;;7.60;47.80;;;;;;5080602;28;20028;-60
2022/03/29 02:36:33;;;;;;;12.48;6.82;;;7.60;47.90;;;;;;5081739;28;20037;-60
2022/03/29 02:38:59;;;;;;;19.85;7.43;;;7.60;47.90;;;;;;5057216;28;20033;-61
2022/03/29 02:41:24;;;;;;;13.15;7.07;;;7.60;48.00;;;;;;5083684;28;20100;-60
2022/03/29 02:43:50;;;;;;;14.70;6.88;;;7.60;48.10;;;;;;5081919;28;20024;-61
2022/03/29 02:46:16;;;;;;;11.07;6.82;;;7.60;48.10;;;;;;5077303;28;20027;-60
2022/03/29 02:48:41;;;;;;;10.30;6.43;;;7.60;48.10;;;;;;4988858;28;20025;-60
2022/03/29 02:51:07;;;;;;;11.48;6.38;;;7.70;48.30;;;;;;5070357;28;20074;-60
2022/03/29 02:53:33;;;;;;;13.00;7.47;;;7.60;48.30;;;;;;5092514;28;20076;-61
2022/03/29 02:55:58;;;;;;;14.80;6.88;;;7.60;48.40;;;;;;5098431;28;20087;-60
2022/03/29 02:58:24;;;;;;;19.73;7.88;;;7.60;48.50;;;;;;5094302;28;20147;-60
2022/03/29 03:00:51;;;;;;;13.57;7.35;;;7.60;48.70;;;;;;5088122;28;20166;-60
2022/03/29 03:03:17;;;;;;;11.95;6.88;;;7.60;48.70;;;;;;5086737;28;20028;-60
2022/03/29 03:05:43;;;;;;;11.65;6.93;;;7.60;48.70;;;;;;5086226;28;20047;-60
2022/03/29 03:08:09;;;;;;;14.40;7.22;;;7.60;48.60;;;;;;5093762;28;20133;-60
2022/03/29 03:10:34;;;;;;;13.23;7.07;;;7.60;48.70;;;;;;5101572;28;20469;-60
2022/03/29 03:13:00;;;;;;;13.27;7.47;;;7.60;48.70;;;;;;5086149;28;20037;-60
2022/03/29 03:15:26;;;;;;;12.80;6.70;;;7.60;48.60;;;;;;5089508;28;20021;-60
2022/03/29 03:17:54;;;;;;;12.75;6.93;;;7.50;48.50;;;;;;5082614;28;20020;-60
2022/03/29 03:20:21;;;;;;;13.18;7.20;;;7.50;48.80;;;;;;5091745;28;20027;-60
2022/03/29 03:22:48;;;;;;;12.82;7.00;;;7.50;48.80;;;;;;5086514;28;20040;-60
2022/03/29 03:25:14;;;;;;;18.67;7.28;;;7.50;48.90;;;;;;5086299;28;20020;-60
2022/03/29 03:27:40;;;;;;;12.52;7.28;;;7.50;48.90;;;;;;5088880;28;20032;-60
2022/03/29 03:30:11;;;;;;;15.23;7.22;;;7.40;48.80;;;;;;5097106;28;20036;-62
2022/03/29 03:32:38;;;;;;;17.88;7.63;;;7.40;49.00;;;;;;5074864;28;20024;-61
2022/03/29 03:35:04;;;;;;;15.85;7.15;;;7.60;49.00;;;;;;5074228;28;20051;-61
2022/03/29 03:37:30;;;;;;;13.40;6.90;;;7.40;49.00;;;;;;5094427;28;20024;-60
2022/03/29 03:39:56;;;;;;;13.82;7.38;;;7.40;49.10;;;;;;5086024;28;20040;-60
2022/03/29 03:42:22;;;;;;;23.42;8.05;;;7.40;49.20;;;;;;5077178;28;20041;-60
2022/03/29 03:44:47;;;;;;;12.90;6.85;;;7.30;49.20;;;;;;5086909;28;20466;-60
2022/03/29 03:47:13;;;;;;;12.18;7.30;;;7.30;49.20;;;;;;5083682;28;20032;-60
2022/03/29 03:49:39;;;;;;;11.40;7.65;;;7.30;49.10;;;;;;5067846;28;20043;-60
2022/03/29 03:52:07;;;;;;;15.27;7.45;;;7.30;49.20;;;;;;5083782;28;20516;-60
2022/03/29 03:54:36;;;;;;;16.20;7.18;;;7.30;49.40;;;;;;5086477;28;20036;-60
2022/03/29 03:57:03;;;;;;;14.45;7.53;;;7.30;49.70;;;;;;5084108;28;20031;-60
2022/03/29 03:59:28;;;;;;;16.27;7.70;;;7.30;49.60;;;;;;5100021;28;20091;-61
2022/03/29 04:01:54;;;;;;;18.40;6.97;;;7.30;49.60;;;;;;5066209;28;20044;-60
2022/03/29 04:04:20;;;;;;;18.45;8.82;;;7.20;49.60;;;;;;5100332;28;20067;-60
2022/03/29 04:06:45;;;;;;;14.07;8.57;;;7.30;49.50;;;;;;5084727;28;20028;-61
2022/03/29 04:09:11;;;;;;;12.90;7.60;;;7.20;49.40;;;;;;5089960;28;20037;-60
2022/03/29 04:11:36;;;;;;;14.75;7.38;;;7.20;49.50;;;;;;5084969;28;20032;-60
2022/03/29 04:14:02;;;;;;;22.08;8.10;;;7.20;49.50;;;;;;5097398;28;20039;-60
2022/03/29 04:16:28;;;;;;;13.95;8.23;;;7.20;49.40;;;;;;5089253;28;20034;-60
2022/03/29 04:18:54;;;;;;;14.43;7.38;;;7.10;49.40;;;;;;5086701;28;20162;-60
2022/03/29 04:21:19;;;;;;;12.65;7.70;;;7.20;49.70;;;;;;5084929;28;20035;-60
2022/03/29 04:23:45;;;;;;;14.10;7.28;;;7.10;49.70;;;;;;5071837;28;20032;-61
2022/03/29 04:26:11;;;;;;;15.63;7.57;;;7.10;49.70;;;;;;5085184;28;20491;-60
2022/03/29 04:28:37;;;;;;;11.95;7.22;;;7.10;49.70;;;;;;5073307;28;20028;-60
2022/03/29 04:31:02;;;;;;;13.63;6.80;;;7.10;49.90;;;;;;5089151;28;20546;-59
2022/03/29 04:33:29;;;;;;;12.82;7.13;;;7.10;50.00;;;;;;5084117;28;20024;-59
2022/03/29 04:35:55;;;;;;;12.95;7.35;;;7.10;50.10;;;;;;5086042;28;20083;-59
2022/03/29 04:38:21;;;;;;;18.05;7.18;;;7.10;50.20;;;;;;5085775;28;20029;-59
2022/03/29 04:40:47;;;;;;;12.90;7.55;;;7.10;50.20;;;;;;5095645;28;20146;-59
2022/03/29 04:43:13;;;;;;;17.10;7.50;;;7.10;50.30;;;;;;5083748;28;20058;-60
2022/03/29 04:45:39;;;;;;;17.38;8.05;;;7.00;50.40;;;;;;5074416;28;20060;-59
2022/03/29 04:48:05;;;;;;;14.30;7.97;;;7.00;50.40;;;;;;5083516;28;20024;-60
2022/03/29 04:50:30;;;;;;;14.80;8.13;;;7.00;50.50;;;;;;5091967;28;20027;-59
2022/03/29 04:52:56;;;;;;;11.38;7.22;;;7.00;50.60;;;;;;5083729;28;20044;-59
2022/03/29 04:55:22;;;;;;;17.58;7.80;;;7.00;50.60;;;;;;5085415;28;20056;-59
2022/03/29 04:57:49;;;;;;;16.55;8.50;;;6.90;50.60;;;;;;5087862;28;20085;-59
2022/03/29 05:00:17;;;;;;;19.55;8.38;;;6.90;50.70;;;;;;5086750;28;20078;-59
2022/03/29 05:02:44;;;;;;;15.95;8.38;;;6.90;50.70;;;;;;5086235;28;20418;-59
2022/03/29 05:05:11;;;;;;;24.48;8.13;;;6.90;50.50;;;;;;5084587;28;20518;-59
2022/03/29 05:07:37;;;;;;;15.98;8.65;;;6.90;50.70;;;;;;5089466;28;20032;-59
2022/03/29 05:10:08;;;;;;;20.92;9.35;;;6.80;50.80;;;;;;5102068;28;20062;-60
2022/03/29 05:12:46;;;;;;;22.73;10.25;;;6.80;51.10;;;;;;5090933;28;20021;-59
2022/03/29 05:15:14;;;;;;;18.25;9.60;;;6.80;51.20;;;;;;5085168;28;20021;-59
2022/03/29 05:17:42;;;;;;;16.80;8.82;;;6.80;50.80;;;;;;5088784;28;20052;-60
2022/03/29 05:20:09;;;;;;;14.57;8.05;;;6.80;50.90;;;;;;5083561;28;20038;-61
2022/03/29 05:22:57;;;;;;;15.90;8.52;;;6.70;50.80;;;;;;5088646;28;20078;-59
2022/03/29 05:25:25;;;;;;;16.92;9.10;;;6.70;51.70;;;;;;5073060;28;20029;-59
2022/03/29 05:27:52;;;;;;;16.42;8.52;;;6.80;50.90;;;;;;5092761;28;20077;-59
2022/03/29 05:30:19;;;;;;;18.20;8.80;;;6.80;50.90;;;;;;5091340;28;20028;-59
2022/03/29 05:32:45;;;;;;;22.23;9.07;;;6.80;50.90;;;;;;5094180;28;20056;-59
2022/03/29 05:35:11;;;;;;;20.92;9.10;;;6.80;51.00;;;;;;5087051;28;20035;-59
2022/03/29 05:37:39;;;;;;;15.55;8.60;;;6.80;51.10;;;;;;5089460;28;20052;-59
2022/03/29 05:40:09;;;;;;;16.42;8.35;;;6.80;51.20;;;;;;5086969;28;20047;-59
2022/03/29 05:42:43;;;;;;;16.63;8.70;;;6.80;51.20;;;;;;5100553;28;20485;-59
2022/03/29 05:45:11;;;;;;;13.57;6.25;;;6.80;51.70;;;;;;5077429;28;20767;-59
2022/03/29 05:50:21;;;;;;;53.60;17.10;;;6.90;51.10;;;;;;5075706;28;20039;-61
2022/03/29 05:52:47;;;;;;;56.60;21.13;;;6.90;50.70;;;;;;5093873;28;20048;-59
2022/03/29 05:55:13;;;;;;;56.83;19.70;;;6.90;50.90;;;;;;5087572;28;20024;-59
2022/03/29 05:57:39;;;;;;;50.08;19.02;;;6.90;51.00;;;;;;5090133;28;20028;-59
2022/03/29 06:00:10;;;;;;;54.85;16.52;;;6.90;51.10;;;;;;5095294;28;20084;-59
2022/03/29 06:02:38;;;;;;;38.50;12.90;;;7.00;51.20;;;;;;5087290;28;20048;-59
2022/03/29 06:05:07;;;;;;;26.00;10.32;;;7.10;51.30;;;;;;5086333;28;20374;-59
2022/03/29 06:07:32;;;;;;;45.85;9.38;;;7.10;51.40;;;;;;5087317;28;20021;-59
2022/03/29 06:09:58;;;;;;;33.15;8.52;;;7.20;51.50;;;;;;5089647;28;20044;-59
2022/03/29 06:12:24;;;;;;;31.77;8.82;;;7.30;51.50;;;;;;5100148;28;20031;-59
2022/03/29 06:14:51;;;;;;;22.08;9.35;;;7.30;51.50;;;;;;5088670;28;20047;-59
2022/03/29 06:17:17;;;;;;;23.55;8.43;;;7.40;51.50;;;;;;5086003;28;20016;-59
2022/03/29 06:19:43;;;;;;;19.33;8.57;;;7.50;51.50;;;;;;5096228;28;20059;-59
2022/03/29 06:22:09;;;;;;;18.90;9.38;;;7.60;51.40;;;;;;5087487;28;20051;-59
2022/03/29 06:24:35;;;;;;;29.92;9.05;;;7.70;51.50;;;;;;5089799;28;20084;-59
2022/03/29 06:27:01;;;;;;;24.00;9.85;;;7.80;51.40;;;;;;5080873;28;20046;-59
2022/03/29 06:29:27;;;;;;;30.80;10.00;;;7.90;51.40;;;;;;5092242;28;20056;-60
2022/03/29 06:31:53;;;;;;;31.77;10.00;;;8.00;51.30;;;;;;5099800;28;20036;-59
2022/03/29 06:34:20;;;;;;;26.20;9.68;;;8.20;51.20;;;;;;5094924;28;20033;-59
2022/03/29 06:36:46;;;;;;;26.77;9.40;;;8.30;51.10;;;;;;5087753;28;20084;-59
2022/03/29 06:39:13;;;;;;;30.58;9.98;;;8.50;51.00;;;;;;5097213;28;20129;-60
2022/03/29 06:41:39;;;;;;;23.15;9.90;;;8.60;50.90;;;;;;5097600;28;20096;-59
2022/03/29 06:44:08;;;;;;;35.35;10.15;;;8.70;50.90;;;;;;5092750;28;20048;-59
2022/03/29 06:46:34;;;;;;;26.88;11.48;;;8.80;50.80;;;;;;5084054;28;20035;-59
2022/03/29 06:49:02;;;;;;;31.90;10.63;;;8.90;50.70;;;;;;5083680;28;20028;-59
2022/03/29 06:51:29;;;;;;;28.08;11.75;;;9.00;50.50;;;;;;5084403;28;20037;-59
2022/03/29 06:53:55;;;;;;;32.72;11.27;;;9.10;50.40;;;;;;5086466;28;20024;-59
2022/03/29 06:56:21;;;;;;;24.10;10.30;;;9.30;50.30;;;;;;5084426;28;20108;-59
2022/03/29 06:58:46;;;;;;;31.35;10.70;;;9.30;50.10;;;;;;5089763;28;20070;-60
2022/03/29 07:01:12;;;;;;;28.52;10.40;;;9.40;50.10;;;;;;5080557;28;20025;-59
2022/03/29 07:03:39;;;;;;;22.20;10.25;;;9.60;50.10;;;;;;5075286;28;20112;-59
2022/03/29 07:06:05;;;;;;;31.05;10.00;;;9.70;50.10;;;;;;5083314;28;20021;-59
2022/03/29 07:08:31;;;;;;;22.08;10.90;;;9.80;49.90;;;;;;5081137;28;20082;-59
2022/03/29 07:13:58;;;;;;;21.50;9.55;;;10.00;49.50;;;;;;4994420;28;20046;-59
2022/03/29 07:16:24;;;;;;;15.63;9.75;;;10.20;49.40;;;;;;4995085;28;20113;-58
2022/03/29 07:18:50;;;;;;;19.83;10.75;;;10.30;49.30;;;;;;4995613;28;20046;-59
2022/03/29 07:21:16;;;;;;;28.67;10.27;;;10.40;49.20;;;;;;4998140;28;20098;-58
2022/03/29 07:23:41;;;;;;;27.20;10.13;;;10.50;49.20;;;;;;4994397;28;20050;-59
2022/03/29 07:26:07;;;;;;;23.77;11.43;;;10.60;49.50;;;;;;4994816;28;20038;-59
2022/03/29 07:28:33;;;;;;;22.45;9.75;;;10.70;49.40;;;;;;4997811;28;20053;-59
2022/03/29 07:30:58;;;;;;;25.58;11.13;;;10.80;49.20;;;;;;4994997;28;20058;-59
2022/03/29 07:33:24;;;;;;;24.02;11.15;;;10.90;49.10;;;;;;4995598;28;20035;-60
2022/03/29 07:35:50;;;;;;;26.70;10.90;;;11.10;49.00;;;;;;5007834;28;20073;-59
2022/03/29 07:38:16;;;;;;;25.05;10.27;;;11.20;48.80;;;;;;5001461;28;20058;-59
2022/03/29 07:40:43;;;;;;;22.48;11.27;;;11.30;48.60;;;;;;5007004;28;20057;-59
2022/03/29 07:43:10;;;;;;;23.05;10.27;;;11.40;48.40;;;;;;5005396;28;20074;-59
2022/03/29 07:45:36;;;;;;;22.23;10.30;;;11.60;48.30;;;;;;5008176;28;20058;-59
2022/03/29 07:48:03;;;;;;;18.05;9.50;;;11.70;48.20;;;;;;5026244;28;20450;-59
2022/03/29 07:50:31;;;;;;;18.75;9.25;;;11.80;48.50;;;;;;5088235;28;20101;-59
2022/03/29 07:52:59;;;;;;;20.00;10.20;;;11.90;47.80;;;;;;5084910;28;20051;-59
2022/03/29 07:55:25;;;;;;;20.17;10.55;;;12.10;47.60;;;;;;5085603;28;20456;-60
2022/03/29 07:57:51;;;;;;;20.05;10.20;;;12.20;47.60;;;;;;5088365;28;20064;-60
2022/03/29 08:00:32;;;;;;;22.15;10.60;;;12.30;47.40;;;;;;5082160;28;20039;-59
2022/03/29 08:03:06;;;;;;;21.27;10.63;;;12.40;47.20;;;;;;5084466;28;20177;-60
2022/03/29 08:05:33;;;;;;;;;;;12.50;47.30;;;;;;5068866;28;20032;-59
2022/03/29 08:07:59;;;;;;;15.85;9.05;;;12.70;47.20;;;;;;5085333;28;19925;-59
2022/03/29 08:10:27;;;;;;;21.48;10.45;;;12.80;46.70;;;;;;5081756;28;20029;-60
2022/03/29 08:12:56;;;;;;;19.08;10.20;;;13.00;46.80;;;;;;5084932;28;20032;-60
2022/03/29 08:15:22;;;;;;;19.63;10.52;;;13.10;46.70;;;;;;5086531;28;20067;-60
2022/03/29 08:17:48;;;;;;;24.38;11.30;;;13.20;46.50;;;;;;5087605;28;20386;-60
2022/03/29 08:20:14;;;;;;;18.95;11.00;;;13.30;46.50;;;;;;5085835;28;20036;-60
2022/03/29 08:22:44;;;;;;;17.48;10.95;;;13.50;46.40;;;;;;5083927;28;20040;-60
2022/03/29 08:25:12;;;;;;;24.30;10.82;;;13.60;46.30;;;;;;5084937;28;20035;-59
2022/03/29 08:27:38;;;;;;;24.25;11.77;;;13.70;46.30;;;;;;5083430;28;20054;-60
2022/03/29 08:30:05;;;;;;;18.10;11.13;;;13.90;46.20;;;;;;5084407;28;20029;-59
2022/03/29 08:32:32;;;;;;;22.75;12.10;;;14.10;46.20;;;;;;5083533;28;20051;-59
2022/03/29 08:34:59;;;;;;;20.10;11.27;;;14.30;46.10;;;;;;5090592;28;20035;-59
2022/03/29 08:37:25;;;;;;;22.77;10.85;;;14.50;45.80;;;;;;5084622;28;20028;-59
2022/03/29 08:39:51;;;;;;;20.85;11.52;;;14.60;45.60;;;;;;5076394;28;20043;-60
2022/03/29 08:42:20;;;;;;;35.13;12.48;;;14.80;45.40;;;;;;5083195;28;20039;-60
2022/03/29 08:44:46;;;;;;;25.63;11.80;;;15.00;45.00;;;;;;5083659;28;20021;-60
2022/03/29 08:47:15;;;;;;;29.10;11.70;;;15.10;44.70;;;;;;5084069;28;20030;-59
2022/03/29 08:49:43;;;;;;;22.25;11.27;;;15.30;44.70;;;;;;5086646;28;20074;-60
2022/03/29 08:52:10;;;;;;;25.05;12.43;;;15.40;44.50;;;;;;5080356;28;20151;-60
2022/03/29 08:54:36;;;;;;;25.80;12.43;;;15.60;44.40;;;;;;5073774;28;20029;-58
2022/03/29 08:57:01;;;;;;;21.58;12.00;;;15.80;44.40;;;;;;5053643;28;20452;-59
2022/03/29 08:59:28;;;;;;;22.73;12.40;;;16.00;44.30;;;;;;5066297;28;20032;-60
2022/03/29 09:01:56;;;;;;;30.85;12.82;;;16.20;43.80;;;;;;5068775;28;20071;-59
2022/03/29 09:04:25;;;;;;;28.13;11.95;;;16.40;43.60;;;;;;5074249;28;20048;-59
2022/03/29 09:06:51;;;;;;;25.90;11.93;;;16.60;43.40;;;;;;5053687;28;20111;-60
2022/03/29 09:09:31;;;;;;;24.50;11.60;;;16.70;43.10;;;;;;5068434;28;20036;-59
2022/03/29 09:12:08;;;;;;;23.33;11.15;;;16.90;43.00;;;;;;5054213;28;20033;-59
2022/03/29 09:14:54;;;;;;;22.23;12.63;;;17.10;43.10;;;;;;5063904;28;20140;-60
2022/03/29 09:17:34;;;;;;;21.10;11.98;;;17.30;42.60;;;;;;5081906;28;20077;-59
2022/03/29 09:20:02;;;;;;;20.63;11.43;;;17.40;41.80;;;;;;5062427;28;20032;-61
2022/03/29 09:22:39;;;;;;;21.08;11.60;;;17.60;42.20;;;;;;5081566;28;20040;-60
2022/03/29 09:25:06;;;;;;;20.95;10.13;;;17.80;40.80;;;;;;5058901;28;20033;-61
2022/03/29 09:27:49;;;;;;;15.65;9.65;;;17.90;40.00;;;;;;5074531;28;20025;-60
2022/03/29 09:30:15;;;;;;;14.48;8.57;;;18.10;38.10;;;;;;5060507;28;20033;-60
2022/03/29 09:32:57;;;;;;;17.35;9.05;;;18.20;38.40;;;;;;5072617;28;20029;-60
2022/03/29 09:35:24;;;;;;;18.42;8.88;;;18.30;36.90;;;;;;5071908;28;20099;-61
2022/03/29 09:37:50;;;;;;;16.02;9.05;;;18.40;37.30;;;;;;5084720;28;20054;-60
2022/03/29 09:40:17;;;;;;;16.23;9.23;;;18.40;36.80;;;;;;5067159;28;20020;-60
2022/03/29 09:43:02;;;;;;;12.75;8.68;;;18.50;36.20;;;;;;5073486;28;20029;-60
2022/03/29 09:45:47;;;;;;;17.05;8.48;;;18.60;35.20;;;;;;5062431;28;20083;-60
2022/03/29 09:48:38;;;;;;;19.95;9.23;;;18.70;35.10;;;;;;5054507;28;20039;-60
2022/03/29 09:51:10;;;;;;;17.15;10.30;;;18.80;34.60;;;;;;5073292;28;21480;-61
2022/03/29 09:53:36;;;;;;;14.35;8.85;;;18.80;34.30;;;;;;5068076;28;20467;-60
2022/03/29 09:56:02;;;;;;;15.25;9.13;;;18.80;34.60;;;;;;5081098;28;20137;-60
2022/03/29 09:58:28;;;;;;;14.52;9.27;;;18.90;34.70;;;;;;5067386;28;20024;-60
2022/03/29 10:00:55;;;;;;;15.02;9.70;;;18.90;34.50;;;;;;5087332;28;20048;-60
2022/03/29 10:03:24;;;;;;;14.18;8.98;;;18.90;34.30;;;;;;5090278;28;20028;-60
2022/03/29 10:05:52;;;;;;;13.55;8.25;;;19.00;34.00;;;;;;5068088;28;20029;-60
2022/03/29 10:11:10;;;;;;;16.58;8.85;;;19.00;33.80;;;;;;5072057;28;20032;-60
2022/03/29 10:13:36;;;;;;;21.88;8.98;;;19.10;34.20;;;;;;5073754;28;20046;-60
2022/03/29 10:16:02;;;;;;;17.83;8.65;;;19.10;33.70;;;;;;5098087;28;20032;-60
2022/03/29 10:18:28;;;;;;;16.40;8.70;;;19.10;33.80;;;;;;5085971;28;20028;-61
2022/03/29 10:20:56;;;;;;;14.73;9.23;;;19.20;33.60;;;;;;5076025;28;20059;-60
2022/03/29 10:23:24;;;;;;;17.88;9.07;;;19.20;33.30;;;;;;5074282;28;20094;-60
2022/03/29 10:25:54;;;;;;;16.23;9.95;;;19.30;33.40;;;;;;5067434;28;20459;-60
2022/03/29 10:28:21;;;;;;;11.02;7.93;;;19.40;31.80;;;;;;5089788;28;20039;-61
2022/03/29 10:30:47;;;;;;;12.07;7.95;;;19.40;32.90;;;;;;5085959;28;20025;-60
2022/03/29 10:33:27;;;;;;;15.60;8.52;;;19.40;32.90;;;;;;5098990;28;20055;-60
2022/03/29 10:35:58;;;;;;;13.00;9.02;;;19.50;32.30;;;;;;5067269;28;20039;-60
2022/03/29 10:38:43;;;;;;;11.60;8.35;;;19.60;31.10;;;;;;5085069;28;20052;-60
2022/03/29 10:41:26;;;;;;;18.63;8.98;;;19.60;32.10;;;;;;5084103;28;20390;-61
2022/03/29 10:44:01;;;;;;;13.77;8.30;;;19.70;31.20;;;;;;5085881;28;20039;-60
2022/03/29 10:46:54;;;;;;;;;;;19.70;31.80;;;;;;5087270;28;20040;-60
2022/03/29 10:49:23;;;;;;;17.08;8.80;;;19.80;31.10;;;;;;5070976;28;19909;-60
2022/03/29 10:51:50;;;;;;;16.25;8.88;;;19.80;31.50;;;;;;5086289;28;20466;-61
2022/03/29 10:54:26;;;;;;;17.05;9.13;;;19.80;31.50;;;;;;5089774;28;20036;-61
2022/03/29 10:57:01;;;;;;;14.63;9.27;;;19.80;30.60;;;;;;5086670;28;20033;-61
2022/03/29 10:59:29;;;;;;;16.67;8.73;;;19.90;31.30;;;;;;5088527;28;20016;-61
2022/03/29 11:02:19;;;;;;;18.05;8.18;;;19.90;31.20;;;;;;5085860;28;20371;-61
2022/03/29 11:05:09;;;;;;;13.23;8.50;;;20.00;31.00;;;;;;5080690;28;20044;-61
2022/03/29 11:07:35;;;;;;;15.10;9.02;;;20.20;30.70;;;;;;5071696;28;20028;-61
2022/03/29 11:10:11;;;;;;;17.92;9.48;;;20.30;30.70;;;;;;5088982;28;20113;-61
2022/03/29 11:12:40;;;;;;;11.40;7.65;;;20.40;30.50;;;;;;5086954;28;20020;-61
2022/03/29 11:15:24;;;;;;;19.80;9.77;;;20.50;30.90;;;;;;5087112;28;20032;-61
2022/03/29 11:17:51;;;;;;;13.80;8.77;;;20.60;29.50;;;;;;5082990;28;20031;-60
2022/03/29 11:20:30;;;;;;;16.45;9.45;;;20.70;30.10;;;;;;5086156;28;20390;-60
2022/03/29 11:23:21;;;;;;;15.45;8.60;;;20.70;29.50;;;;;;5084790;28;20058;-61
2022/03/29 11:25:46;;;;;;;15.55;8.40;;;20.70;30.10;;;;;;5084788;28;20036;-60
2022/03/29 11:28:17;;;;;;;18.90;10.30;;;20.80;29.70;;;;;;5087202;28;20025;-61
2022/03/29 11:30:43;;;;;;;18.48;7.88;;;20.90;28.70;;;;;;5067840;28;20021;-61
2022/03/29 11:33:10;;;;;;;13.82;8.07;;;20.90;29.80;;;;;;5090559;28;20088;-60
2022/03/29 11:35:38;;;;;;;12.23;7.82;;;21.00;29.70;;;;;;5086404;28;20064;-61
2022/03/29 11:38:18;;;;;;;21.58;8.18;;;21.10;29.80;;;;;;5084503;28;20034;-61
2022/03/29 11:40:44;;;;;;;14.55;8.10;;;21.40;29.30;;;;;;5078027;28;20110;-61
2022/03/29 11:43:12;;;;;;;11.68;7.55;;;21.40;30.00;;;;;;5084630;28;20028;-60
2022/03/29 11:45:43;;;;;;;13.50;7.70;;;21.50;29.90;;;;;;5086415;28;20047;-61
2022/03/29 11:48:12;;;;;;;15.68;7.50;;;21.70;29.00;;;;;;5091837;28;20028;-61
2022/03/29 11:50:49;;;;;;;13.65;7.47;;;21.80;29.00;;;;;;5085919;28;20042;-61
2022/03/29 11:53:26;;;;;;;12.95;7.65;;;21.80;28.60;;;;;;5074274;28;20029;-60
2022/03/29 11:56:13;;;;;;;13.32;7.38;;;21.80;27.80;;;;;;5083005;28;20049;-61
2022/03/29 11:58:41;;;;;;;11.75;7.53;;;21.80;28.10;;;;;;5093162;28;20043;-61
2022/03/29 12:01:14;;;;;;;12.68;8.15;;;21.70;28.00;;;;;;5079969;28;20040;-62
2022/03/29 12:03:45;;;;;;;13.35;8.75;;;21.70;28.20;;;;;;5089848;28;20044;-62
2022/03/29 12:06:18;;;;;;;13.75;8.32;;;21.60;27.80;;;;;;5068874;28;20100;-61
2022/03/29 12:08:50;;;;;;;14.07;8.15;;;21.60;27.90;;;;;;5085879;28;20084;-61
2022/03/29 12:11:18;;;;;;;15.60;8.30;;;21.50;27.90;;;;;;5084237;28;20028;-61
2022/03/29 12:13:45;;;;;;;13.05;7.57;;;21.50;27.80;;;;;;5091429;28;20024;-61
2022/03/29 12:16:22;;;;;;;15.75;8.48;;;21.40;28.00;;;;;;5076749;28;20050;-61
2022/03/29 12:18:49;;;;;;;16.42;8.48;;;21.40;27.70;;;;;;5069670;28;20023;-62
2022/03/29 12:21:16;;;;;;;11.55;7.20;;;21.30;27.80;;;;;;5078781;28;20056;-60
2022/03/29 12:23:42;;;;;;;13.55;7.88;;;21.30;28.00;;;;;;5082624;28;20021;-61
2022/03/29 12:26:13;;;;;;;15.07;7.88;;;21.30;27.70;;;;;;5079660;28;20024;-61
2022/03/29 12:28:40;;;;;;;17.00;9.20;;;21.40;28.40;;;;;;5075899;28;20036;-61
2022/03/29 12:31:11;;;;;;;14.00;8.00;;;21.40;28.10;;;;;;5074375;28;20021;-61
2022/03/29 12:33:38;;;;;;;12.60;7.75;;;21.40;27.90;;;;;;5076959;28;20020;-61
2022/03/29 12:36:10;;;;;;;15.98;8.20;;;21.40;28.20;;;;;;5074522;28;20040;-61
2022/03/29 12:39:00;;;;;;;14.35;7.35;;;21.40;27.90;;;;;;5082124;28;20462;-61
2022/03/29 12:41:38;;;;;;;13.38;7.43;;;21.40;27.60;;;;;;5083626;28;20035;-61
2022/03/29 12:44:09;;;;;;;14.77;7.22;;;21.40;28.10;;;;;;5063680;28;20046;-61
2022/03/29 12:46:36;;;;;;;16.65;6.85;;;21.50;28.20;;;;;;5081817;28;20105;-61
2022/03/29 12:49:02;;;;;;;15.75;6.35;;;21.50;28.20;;;;;;5075132;28;20029;-61
2022/03/29 12:51:34;;;;;;;14.05;6.97;;;21.60;27.80;;;;;;5084998;28;20036;-62
2022/03/29 12:54:03;;;;;;;11.43;6.50;;;21.60;27.30;;;;;;5063455;28;20060;-61
2022/03/29 12:56:32;;;;;;;13.52;6.88;;;21.50;27.50;;;;;;5083844;28;20060;-61
2022/03/29 12:58:58;;;;;;;14.15;6.50;;;21.50;27.20;;;;;;5069561;28;20028;-62